Time;durP1;ratioP1;P1;durP2;ratioP2;P2;SDS_P1;SDS_P2;PMS_P1;PMS_P2;Temp;Humidity;BMP_temperature;BMP_pressure;BME280_temperature;BME280_humidity;BME280_pressure;Samples;Min_cycle;Max_cycle;Signal;HPM_P1;HPM_P2
2022/04/07 00:02:28;;;;;;;9.90;7.38;;;2.90;99.90;;;;;;5269452;28;20032;-72
2022/04/07 00:04:59;;;;;;;15.45;7.03;;;3.00;99.90;;;;;;5269523;28;20078;-74
2022/04/07 00:07:30;;;;;;;12.52;7.53;;;3.10;99.90;;;;;;5269365;28;20099;-74
2022/04/07 00:10:01;;;;;;;10.70;7.28;;;3.00;99.90;;;;;;5269297;28;20020;-74
2022/04/07 00:12:33;;;;;;;10.63;7.00;;;2.80;99.90;;;;;;5269331;28;20095;-71
2022/04/07 00:15:05;;;;;;;10.85;6.95;;;2.70;99.90;;;;;;5269068;28;20046;-71
2022/04/07 00:17:36;;;;;;;15.93;9.50;;;2.70;99.90;;;;;;5269256;28;20032;-73
2022/04/07 00:20:07;;;;;;;14.00;7.78;;;2.50;99.90;;;;;;5269345;28;20027;-73
2022/04/07 00:22:39;;;;;;;11.82;7.53;;;2.30;99.90;;;;;;5269207;28;20028;-73
2022/04/07 00:25:10;;;;;;;12.95;8.60;;;2.60;99.90;;;;;;5268490;28;20513;-73
2022/04/07 00:27:41;;;;;;;15.07;8.95;;;2.40;99.90;;;;;;5269150;28;20032;-74
2022/04/07 00:30:13;;;;;;;10.43;6.90;;;2.40;99.90;;;;;;5269094;28;20016;-73
2022/04/07 00:32:44;;;;;;;10.40;7.07;;;2.00;99.90;;;;;;5269148;28;20362;-74
2022/04/07 00:35:16;;;;;;;11.25;7.43;;;1.90;99.90;;;;;;5268982;28;20032;-73
2022/04/07 00:37:47;;;;;;;10.00;6.85;;;1.80;99.90;;;;;;5268870;28;20036;-74
2022/04/07 00:40:18;;;;;;;9.60;6.40;;;1.90;99.90;;;;;;5269005;28;20073;-71
2022/04/07 00:42:50;;;;;;;9.82;6.50;;;1.70;99.90;;;;;;5268796;28;20024;-73
2022/04/07 00:45:23;;;;;;;14.25;6.32;;;2.00;99.90;;;;;;5268907;28;20031;-73
2022/04/07 00:47:54;;;;;;;12.25;6.95;;;1.80;99.90;;;;;;5269018;28;19908;-74
2022/04/07 00:50:25;;;;;;;12.82;7.43;;;1.60;99.90;;;;;;5268924;28;20024;-73
2022/04/07 00:52:58;;;;;;;11.40;7.40;;;1.80;99.90;;;;;;5268959;28;20028;-73
2022/04/07 00:55:29;;;;;;;10.35;7.25;;;2.00;99.90;;;;;;5268892;28;20024;-73
2022/04/07 00:58:01;;;;;;;13.98;7.68;;;1.80;99.90;;;;;;5268718;28;20111;-73
2022/04/07 01:00:34;;;;;;;11.18;8.05;;;1.90;99.90;;;;;;5268770;28;20532;-73
2022/04/07 01:03:04;;;;;;;17.98;8.75;;;2.10;99.90;;;;;;5268826;28;20067;-73
2022/04/07 01:05:38;;;;;;;14.60;8.38;;;2.10;99.90;;;;;;5268799;28;20069;-70
2022/04/07 01:08:09;;;;;;;13.30;8.20;;;2.00;99.90;;;;;;5268594;28;20031;-71
2022/04/07 01:10:40;;;;;;;15.43;8.27;;;2.00;99.90;;;;;;5268549;28;20039;-72
2022/04/07 01:13:12;;;;;;;11.35;7.20;;;2.00;99.90;;;;;;5268729;28;20031;-71
2022/04/07 01:15:42;;;;;;;12.10;8.43;;;2.00;99.90;;;;;;5268459;28;20056;-71
2022/04/07 01:18:14;;;;;;;12.05;8.68;;;1.80;99.90;;;;;;5268583;28;20036;-73
2022/04/07 01:20:44;;;;;;;12.95;7.80;;;1.70;99.90;;;;;;5268740;28;20045;-74
2022/04/07 01:23:15;;;;;;;14.35;8.75;;;1.80;99.90;;;;;;5250767;28;20028;-74
2022/04/07 01:25:46;;;;;;;13.57;8.77;;;1.60;99.90;;;;;;5268704;28;20008;-73
2022/04/07 01:28:17;;;;;;;13.93;7.70;;;1.70;99.90;;;;;;5268543;28;20055;-74
2022/04/07 01:30:48;;;;;;;11.13;7.53;;;1.90;99.90;;;;;;5268433;28;20059;-74
2022/04/07 01:33:18;;;;;;;12.25;7.38;;;1.70;99.90;;;;;;5268416;28;20035;-73
2022/04/07 01:35:50;;;;;;;13.32;7.32;;;1.70;99.90;;;;;;5268423;28;20422;-72
2022/04/07 01:38:21;;;;;;;11.38;8.10;;;1.30;99.90;;;;;;5271547;28;20047;-71
2022/04/07 01:40:53;;;;;;;12.18;6.95;;;1.20;99.90;;;;;;5272352;28;20063;-73
2022/04/07 01:43:24;;;;;;;13.20;8.02;;;1.20;99.90;;;;;;5272120;28;20043;-73
2022/04/07 01:45:55;;;;;;;14.57;7.82;;;1.20;99.90;;;;;;5272167;28;20031;-73
2022/04/07 01:48:27;;;;;;;13.10;7.55;;;1.00;99.90;;;;;;5272022;28;20024;-73
2022/04/07 01:50:59;;;;;;;12.68;7.30;;;1.10;99.90;;;;;;5271904;28;20097;-73
2022/04/07 01:53:30;;;;;;;12.32;8.00;;;1.10;99.90;;;;;;5271934;28;20388;-73
2022/04/07 01:56:03;;;;;;;13.02;8.23;;;1.40;99.90;;;;;;5271850;28;20376;-73
2022/04/07 01:58:35;;;;;;;15.05;8.00;;;1.40;99.90;;;;;;5271843;28;20040;-72
2022/04/07 02:01:06;;;;;;;14.38;8.07;;;1.00;99.90;;;;;;5271928;28;20022;-73
2022/04/07 02:03:40;;;;;;;10.13;6.97;;;1.10;99.90;;;;;;5271716;28;20032;-73
2022/04/07 02:06:11;;;;;;;11.00;7.85;;;1.10;99.90;;;;;;5272016;28;20016;-73
2022/04/07 02:08:43;;;;;;;14.35;8.30;;;0.80;99.90;;;;;;5253538;28;20024;-73
2022/04/07 02:11:14;;;;;;;13.50;7.65;;;0.70;99.90;;;;;;5271613;28;20479;-72
2022/04/07 02:13:45;;;;;;;12.23;6.88;;;0.90;99.90;;;;;;5271302;28;20012;-72
2022/04/07 02:16:19;;;;;;;13.68;7.97;;;0.90;99.90;;;;;;5271253;28;20045;-73
2022/04/07 02:18:50;;;;;;;14.85;8.25;;;0.90;99.90;;;;;;5271426;28;20040;-74
2022/04/07 02:21:21;;;;;;;14.98;8.55;;;0.90;99.90;;;;;;5271379;28;20012;-73
2022/04/07 02:23:52;;;;;;;13.05;7.68;;;1.10;99.90;;;;;;5271325;28;20024;-73
2022/04/07 02:26:22;;;;;;;11.80;8.00;;;1.20;99.90;;;;;;5271254;28;20024;-72
2022/04/07 02:28:53;;;;;;;14.70;8.50;;;1.00;99.90;;;;;;5271230;28;20135;-72
2022/04/07 02:31:24;;;;;;;14.52;8.25;;;0.80;99.90;;;;;;5271153;28;20013;-73
2022/04/07 02:33:55;;;;;;;14.43;8.63;;;1.00;99.90;;;;;;5271240;28;20111;-73
2022/04/07 02:36:26;;;;;;;14.20;9.05;;;1.20;99.90;;;;;;5271033;28;20020;-73
2022/04/07 02:38:56;;;;;;;11.35;7.97;;;1.30;99.90;;;;;;5270968;28;20100;-72
2022/04/07 02:41:28;;;;;;;15.73;8.35;;;1.20;99.90;;;;;;5270969;28;20103;-73
2022/04/07 02:44:02;;;;;;;12.85;8.52;;;1.00;99.90;;;;;;5270789;28;20047;-73
2022/04/07 02:46:33;;;;;;;13.65;8.23;;;1.30;99.90;;;;;;5271001;28;20440;-73
2022/04/07 02:49:04;;;;;;;14.25;8.77;;;1.20;99.90;;;;;;5270381;28;20055;-73
2022/04/07 02:51:35;;;;;;;16.02;8.38;;;0.90;99.90;;;;;;5270720;28;20028;-73
2022/04/07 02:54:06;;;;;;;16.10;9.18;;;1.00;99.90;;;;;;5270915;28;20028;-73
2022/04/07 02:56:37;;;;;;;14.68;9.48;;;1.00;99.90;;;;;;5270731;28;20061;-73
2022/04/07 02:59:08;;;;;;;14.82;9.27;;;1.10;99.90;;;;;;5270682;28;20444;-73
2022/04/07 03:01:39;;;;;;;14.65;8.30;;;0.70;99.90;;;;;;5270853;28;20020;-73
2022/04/07 03:04:10;;;;;;;15.02;9.55;;;0.90;99.90;;;;;;5270546;28;20020;-73
2022/04/07 03:06:41;;;;;;;15.55;9.10;;;1.00;99.90;;;;;;5270443;28;20020;-73
2022/04/07 03:09:12;;;;;;;19.58;9.77;;;1.00;99.90;;;;;;5270308;28;20051;-74
2022/04/07 03:11:43;;;;;;;14.40;9.52;;;1.20;99.90;;;;;;5270415;28;20027;-73
2022/04/07 03:14:14;;;;;;;17.45;10.32;;;1.00;99.90;;;;;;5269978;28;20032;-73
2022/04/07 03:16:48;;;;;;;21.10;13.05;;;1.00;99.90;;;;;;5270428;28;20487;-73
2022/04/07 03:19:19;;;;;;;20.38;11.55;;;1.00;99.90;;;;;;5270348;28;20103;-73
2022/04/07 03:21:50;;;;;;;17.98;10.55;;;0.80;99.90;;;;;;5270223;28;20012;-73
2022/04/07 03:24:21;;;;;;;16.75;10.25;;;0.40;99.90;;;;;;5270231;28;20029;-73
2022/04/07 03:26:52;;;;;;;18.67;9.60;;;0.30;99.90;;;;;;5252034;28;20523;-73
2022/04/07 03:29:23;;;;;;;22.85;10.05;;;0.40;99.90;;;;;;5270251;28;20349;-73
2022/04/07 03:31:54;;;;;;;16.85;10.73;;;0.70;99.90;;;;;;5270011;28;20074;-72
2022/04/07 03:34:24;;;;;;;21.25;12.30;;;0.70;99.90;;;;;;5270075;28;20053;-72
2022/04/07 03:36:55;;;;;;;19.52;11.57;;;0.80;99.90;;;;;;5269798;28;20060;-73
2022/04/07 03:39:26;;;;;;;21.27;11.85;;;0.50;99.90;;;;;;5251679;28;20460;-72
2022/04/07 03:41:57;;;;;;;19.20;11.60;;;1.00;99.90;;;;;;5270038;28;20127;-72
2022/04/07 03:44:28;;;;;;;19.02;12.00;;;1.00;99.90;;;;;;5269853;28;20039;-72
2022/04/07 03:46:59;;;;;;;21.92;10.80;;;0.30;99.90;;;;;;5269683;28;20028;-71
2022/04/07 03:49:30;;;;;;;19.13;11.00;;;0.50;99.90;;;;;;5251654;28;20384;-73
2022/04/07 03:52:01;;;;;;;20.70;11.40;;;0.40;99.90;;;;;;5251677;28;20116;-73
2022/04/07 03:54:32;;;;;;;17.75;11.02;;;0.70;99.90;;;;;;5251393;28;20099;-72
2022/04/07 03:57:03;;;;;;;16.13;10.93;;;1.00;99.90;;;;;;5269591;28;20028;-73
2022/04/07 03:59:38;;;;;;;20.70;11.32;;;0.90;99.90;;;;;;5251210;28;20028;-73
2022/04/07 04:02:10;;;;;;;22.77;12.38;;;0.80;99.90;;;;;;5250763;28;20028;-73
2022/04/07 04:04:41;;;;;;;20.23;12.07;;;0.80;99.90;;;;;;5269454;28;20355;-73
2022/04/07 04:07:11;;;;;;;19.58;10.77;;;0.60;99.90;;;;;;5269070;28;20024;-71
2022/04/07 04:09:42;;;;;;;23.85;12.45;;;0.90;99.90;;;;;;5251174;28;20025;-73
2022/04/07 04:12:13;;;;;;;20.63;12.55;;;1.10;99.90;;;;;;5251109;28;20020;-73
2022/04/07 04:14:44;;;;;;;20.75;13.20;;;0.80;99.90;;;;;;5251010;28;20399;-73
2022/04/07 04:17:15;;;;;;;18.35;11.73;;;0.70;99.90;;;;;;5251115;28;20444;-73
2022/04/07 04:19:45;;;;;;;24.02;13.13;;;1.00;99.90;;;;;;5251047;28;20028;-73
2022/04/07 04:22:16;;;;;;;21.80;12.52;;;1.60;99.90;;;;;;5269396;28;20077;-73
2022/04/07 04:24:48;;;;;;;21.00;11.65;;;1.40;99.90;;;;;;5269216;28;20028;-72
2022/04/07 04:27:19;;;;;;;22.67;13.55;;;1.70;99.90;;;;;;5269177;28;20051;-73
2022/04/07 04:29:49;;;;;;;34.10;16.25;;;1.70;99.90;;;;;;5251093;28;20138;-73
2022/04/07 04:32:20;;;;;;;35.58;17.83;;;1.90;99.90;;;;;;5269057;28;20028;-73
2022/04/07 04:34:51;;;;;;;45.97;24.02;;;2.10;99.90;;;;;;5269066;28;20039;-73
2022/04/07 04:37:25;;;;;;;46.10;23.50;;;2.10;99.90;;;;;;5268897;28;20502;-73
2022/04/07 04:39:56;;;;;;;41.75;22.15;;;2.30;99.90;;;;;;5251013;28;20031;-72
2022/04/07 04:42:27;;;;;;;40.88;21.85;;;1.90;99.90;;;;;;5269098;28;20024;-73
2022/04/07 04:44:58;;;;;;;47.72;22.77;;;2.00;99.90;;;;;;5268810;28;20093;-71
2022/04/07 04:47:30;;;;;;;49.17;21.98;;;1.90;99.90;;;;;;5269011;28;20020;-73
2022/04/07 04:50:05;;;;;;;42.00;18.75;;;1.90;99.90;;;;;;5269078;28;20028;-73
2022/04/07 04:52:36;;;;;;;38.88;17.33;;;2.00;99.90;;;;;;5268746;28;20024;-73
2022/04/07 04:55:07;;;;;;;35.70;18.45;;;2.30;99.90;;;;;;5268935;28;20035;-74
2022/04/07 04:57:38;;;;;;;38.75;19.08;;;2.50;99.90;;;;;;5250861;28;20035;-73
2022/04/07 05:00:09;;;;;;;38.55;18.25;;;2.60;99.90;;;;;;5250452;28;20029;-73
2022/04/07 05:02:40;;;;;;;40.40;16.60;;;3.00;99.90;;;;;;5277731;28;20031;-74
2022/04/07 05:05:12;;;;;;;41.88;17.60;;;3.10;99.90;;;;;;5259891;28;20017;-73
2022/04/07 05:07:43;;;;;;;43.90;18.85;;;3.50;99.90;;;;;;5278374;28;20102;-74
2022/04/07 05:10:14;;;;;;;38.53;19.88;;;3.60;99.90;;;;;;5279226;28;20521;-73
2022/04/07 05:12:45;;;;;;;44.90;20.95;;;4.00;99.90;;;;;;5281181;28;20150;-73
2022/04/07 05:15:16;;;;;;;48.22;20.17;;;4.00;99.90;;;;;;5287236;28;20043;-72
2022/04/07 05:17:49;;;;;;;41.58;20.20;;;3.90;99.90;;;;;;5293780;28;20043;-74
2022/04/07 05:20:21;;;;;;;44.65;21.58;;;4.10;99.90;;;;;;5293685;28;20019;-73
2022/04/07 05:22:52;;;;;;;40.50;20.48;;;4.40;99.90;;;;;;5275533;28;20023;-74
2022/04/07 05:25:26;;;;;;;43.20;21.95;;;4.60;99.90;;;;;;5289870;28;20016;-74
2022/04/07 05:28:06;;;;;;;47.45;20.10;;;4.30;99.90;;;;;;5277179;27;20031;-73
2022/04/07 05:30:43;;;;;;;47.75;20.98;;;4.90;99.90;;;;;;5285077;28;20023;-73
2022/04/07 05:33:30;;;;;;;44.65;20.88;;;5.00;99.90;;;;;;5265792;28;20023;-73
2022/04/07 05:36:08;;;;;;;40.75;19.00;;;5.60;99.90;;;;;;5262947;28;20047;-73
2022/04/07 05:38:43;;;;;;;44.05;20.55;;;5.70;99.90;;;;;;5284034;28;20043;-73
2022/04/07 05:41:21;;;;;;;41.42;20.63;;;5.80;99.90;;;;;;5286128;28;20023;-73
2022/04/07 05:43:53;;;;;;;47.17;22.67;;;5.80;99.90;;;;;;5284962;27;20041;-72
2022/04/07 05:46:27;;;;;;;44.67;21.75;;;5.90;99.90;;;;;;5284242;28;20085;-74
2022/04/07 05:49:05;;;;;;;46.10;21.95;;;6.00;99.90;;;;;;5283651;28;20020;-73
2022/04/07 05:51:38;;;;;;;44.80;22.08;;;6.10;99.90;;;;;;5283717;28;20118;-74
2022/04/07 05:54:14;;;;;;;42.92;20.60;;;6.30;99.90;;;;;;5282332;28;20026;-74
2022/04/07 05:56:49;;;;;;;49.95;21.83;;;6.30;99.90;;;;;;5265473;28;20039;-71
2022/04/07 05:59:24;;;;;;;46.58;21.85;;;6.50;99.90;;;;;;5281937;28;20066;-73
2022/04/07 06:02:00;;;;;;;49.40;22.35;;;6.60;99.90;;;;;;5265931;28;20032;-72
2022/04/07 06:04:38;;;;;;;39.33;21.00;;;6.90;99.90;;;;;;5285304;28;20030;-72
2022/04/07 06:07:13;;;;;;;44.78;21.15;;;7.00;99.90;;;;;;5284988;27;20143;-72
2022/04/07 06:09:46;;;;;;;47.38;21.92;;;7.20;99.90;;;;;;5266659;28;20696;-71
2022/04/07 06:12:19;;;;;;;43.35;20.63;;;7.00;99.90;;;;;;5285754;27;20054;-72
2022/04/07 06:14:53;;;;;;;40.88;21.23;;;7.10;99.90;;;;;;5285717;28;20544;-72
2022/04/07 06:17:41;;;;;;;39.92;20.27;;;7.30;99.90;;;;;;5283228;27;20543;-72
2022/04/07 06:20:16;;;;;;;40.15;20.48;;;7.30;99.90;;;;;;5285137;28;20050;-72
2022/04/07 06:22:50;;;;;;;41.03;19.27;;;7.60;99.90;;;;;;5285407;27;20483;-73
2022/04/07 06:25:25;;;;;;;44.33;19.60;;;7.70;99.90;;;;;;5285467;27;20073;-73
2022/04/07 06:28:07;;;;;;;40.95;20.73;;;7.90;99.90;;;;;;5264663;28;20510;-72
2022/04/07 06:30:40;;;;;;;44.00;20.33;;;8.30;99.90;;;;;;5285316;27;20042;-71
2022/04/07 06:33:14;;;;;;;38.97;20.55;;;8.60;99.90;;;;;;5267138;28;20097;-72
2022/04/07 06:35:49;;;;;;;43.42;21.27;;;8.70;99.90;;;;;;5285118;27;20031;-72
2022/04/07 06:38:24;;;;;;;38.97;19.85;;;8.90;99.90;;;;;;5285269;27;20035;-72
2022/04/07 06:40:59;;;;;;;41.65;20.20;;;9.10;99.90;;;;;;5266623;28;20498;-72
2022/04/07 06:43:32;;;;;;;36.92;19.90;;;9.40;99.90;;;;;;5285148;28;20072;-73
2022/04/07 06:46:06;;;;;;;40.08;19.90;;;9.70;99.90;;;;;;5285323;27;20024;-72
2022/04/07 06:48:41;;;;;;;40.63;20.52;;;9.80;99.90;;;;;;5285804;27;20460;-72
2022/04/07 06:51:16;;;;;;;48.10;22.13;;;10.10;99.90;;;;;;5285374;28;20043;-72
2022/04/07 06:53:50;;;;;;;42.50;24.00;;;10.00;99.90;;;;;;5285199;28;20473;-73
2022/04/07 06:56:24;;;;;;;42.08;25.10;;;10.20;99.90;;;;;;5268701;28;20039;-75
2022/04/07 06:58:59;;;;;;;47.92;24.05;;;10.20;99.90;;;;;;5285839;27;20131;-71
2022/04/07 07:01:34;;;;;;;37.92;21.52;;;10.10;99.90;;;;;;5283389;27;20031;-70
2022/04/07 07:04:13;;;;;;;38.95;23.20;;;10.20;99.90;;;;;;5269170;28;20027;-71
2022/04/07 07:06:46;;;;;;;51.92;23.73;;;10.30;99.90;;;;;;5284136;28;20034;-72
2022/04/07 07:09:19;;;;;;;41.92;22.40;;;10.40;99.90;;;;;;5284706;28;20016;-71
2022/04/07 07:11:56;;;;;;;47.13;26.13;;;10.60;99.90;;;;;;5284195;28;20081;-72
2022/04/07 07:14:33;;;;;;;48.92;25.63;;;10.80;99.90;;;;;;5282815;28;20055;-71
2022/04/07 07:17:07;;;;;;;43.33;26.30;;;10.90;99.90;;;;;;5284739;27;20043;-70
2022/04/07 07:19:37;;;;;;;52.53;25.55;;;11.10;99.90;;;;;;5282257;28;20028;-74
2022/04/07 07:22:10;;;;;;;48.28;24.17;;;11.60;99.90;;;;;;5261784;28;20668;-71
2022/04/07 07:24:46;;;;;;;43.05;21.80;;;12.20;99.90;;;;;;5279889;28;20036;-70
2022/04/07 07:27:20;;;;;;;41.03;22.52;;;12.90;99.90;;;;;;5279773;28;20023;-71
2022/04/07 07:29:55;;;;;;;39.55;20.20;;;13.10;99.90;;;;;;5278507;28;20034;-72
2022/04/07 07:32:27;;;;;;;37.47;19.98;;;13.40;99.90;;;;;;5281829;27;20020;-71
2022/04/07 07:35:00;;;;;;;36.60;16.70;;;13.80;99.90;;;;;;5280075;27;20161;-73
2022/04/07 07:37:34;;;;;;;32.45;15.98;;;14.50;99.90;;;;;;5289522;27;20039;-74
2022/04/07 07:40:17;;;;;;;29.25;13.43;;;14.80;99.90;;;;;;5293541;27;20584;-71
2022/04/07 07:42:56;;;;;;;29.63;14.57;;;14.90;99.90;;;;;;5302571;27;20027;-74
2022/04/07 07:45:32;;;;;;;34.10;14.48;;;15.30;99.90;;;;;;5270878;28;20032;-72
2022/04/07 07:48:08;;;;;;;34.60;14.05;;;15.50;99.90;;;;;;5290077;28;20091;-73
2022/04/07 07:50:48;;;;;;;33.38;14.30;;;15.60;99.90;;;;;;5288167;27;20024;-73
2022/04/07 07:53:22;;;;;;;22.40;11.73;;;15.80;99.90;;;;;;5292455;27;20019;-73
2022/04/07 07:55:57;;;;;;;22.33;11.77;;;15.90;99.90;;;;;;5272973;28;20137;-74
2022/04/07 07:58:31;;;;;;;24.80;11.65;;;15.80;99.90;;;;;;5287318;28;20550;-74
2022/04/07 08:01:04;;;;;;;26.38;10.68;;;16.30;99.90;;;;;;5278930;28;20060;-74
2022/04/07 08:03:37;;;;;;;24.33;10.35;;;16.60;99.90;;;;;;5294578;27;20055;-74
2022/04/07 08:06:12;;;;;;;19.85;10.00;;;16.50;99.90;;;;;;5289510;28;20047;-75
2022/04/07 08:08:45;;;;;;;27.67;10.68;;;16.20;99.90;;;;;;5290562;27;20020;-75
2022/04/07 08:11:18;;;;;;;21.90;10.88;;;16.20;99.90;;;;;;5293042;27;20367;-74
2022/04/07 08:13:50;;;;;;;24.27;10.27;;;16.10;99.90;;;;;;5293143;27;20103;-74
2022/04/07 08:16:30;;;;;;;22.60;12.13;;;16.40;99.90;;;;;;5272891;28;20043;-74
2022/04/07 08:19:09;;;;;;;23.07;11.03;;;16.60;99.90;;;;;;5289891;28;20467;-75
2022/04/07 08:21:50;;;;;;;24.10;11.50;;;16.70;99.90;;;;;;5289785;28;20027;-75
2022/04/07 08:24:27;;;;;;;24.77;11.75;;;17.00;99.90;;;;;;5280763;28;20079;-73
2022/04/07 08:27:02;;;;;;;26.58;10.95;;;16.90;99.90;;;;;;5289523;28;20055;-74
2022/04/07 08:29:36;;;;;;;25.13;10.43;;;16.90;99.90;;;;;;5289553;28;20467;-70
2022/04/07 08:32:11;;;;;;;23.27;9.10;;;17.10;99.90;;;;;;5289969;28;20448;-74
2022/04/07 08:34:43;;;;;;;26.73;9.13;;;17.30;99.90;;;;;;5288390;28;20099;-72
2022/04/07 08:37:20;;;;;;;23.20;8.85;;;17.20;99.90;;;;;;5278079;28;20047;-71
2022/04/07 08:39:53;;;;;;;25.35;8.52;;;17.20;99.90;;;;;;5284972;28;20046;-72
2022/04/07 08:42:28;;;;;;;19.63;8.50;;;17.40;99.90;;;;;;5267863;28;20042;-74
2022/04/07 08:45:02;;;;;;;23.60;7.43;;;17.90;99.90;;;;;;5289316;28;20030;-75
2022/04/07 08:47:38;;;;;;;25.15;8.77;;;18.00;99.90;;;;;;5291627;28;20032;-74
2022/04/07 08:50:14;;;;;;;20.77;8.85;;;18.10;99.90;;;;;;5293347;28;20016;-73
2022/04/07 08:52:48;;;;;;;22.38;7.57;;;18.10;95.10;;;;;;5293821;28;20023;-75
2022/04/07 08:55:24;;;;;;;18.58;7.70;;;18.30;94.10;;;;;;5283918;28;20031;-75
2022/04/07 08:58:00;;;;;;;20.98;7.22;;;18.60;94.40;;;;;;5293706;28;20035;-75
2022/04/07 09:00:35;;;;;;;25.42;7.05;;;18.80;99.90;;;;;;5293652;28;20432;-75
2022/04/07 09:03:09;;;;;;;24.40;7.03;;;19.10;91.10;;;;;;5293155;28;20098;-72
2022/04/07 09:06:03;;;;;;;20.35;7.00;;;18.80;89.20;;;;;;5292450;28;20045;-75
2022/04/07 09:08:38;;;;;;;20.20;6.63;;;19.20;87.90;;;;;;5281831;28;20035;-74
2022/04/07 09:11:11;;;;;;;18.60;6.68;;;19.30;82.20;;;;;;5293355;28;20019;-75
2022/04/07 09:13:49;;;;;;;35.05;7.38;;;19.20;80.00;;;;;;5292383;28;20039;-73
2022/04/07 09:16:32;;;;;;;25.27;7.10;;;19.40;81.40;;;;;;5280369;28;20055;-73
2022/04/07 09:19:09;;;;;;;22.90;6.68;;;19.70;77.70;;;;;;5293155;28;20042;-73
2022/04/07 09:21:43;;;;;;;26.20;6.00;;;19.70;76.80;;;;;;5266515;28;20053;-74
2022/04/07 09:24:26;;;;;;;21.05;6.20;;;19.90;77.20;;;;;;5293105;28;20105;-74
2022/04/07 09:27:04;;;;;;;21.70;6.03;;;20.00;76.20;;;;;;5293507;28;20019;-73
2022/04/07 09:29:47;;;;;;;27.08;6.45;;;19.80;75.00;;;;;;5292955;28;20036;-74
2022/04/07 09:32:27;;;;;;;22.85;6.13;;;20.50;72.50;;;;;;5293112;28;20458;-74
2022/04/07 09:35:02;;;;;;;27.10;6.70;;;20.30;75.70;;;;;;5293065;28;20039;-75
2022/04/07 09:37:38;;;;;;;25.15;5.90;;;20.30;73.70;;;;;;5281002;28;20809;-72
2022/04/07 09:40:16;;;;;;;27.88;6.05;;;19.90;72.20;;;;;;5292979;28;20094;-73
2022/04/07 09:43:02;;;;;;;26.67;5.50;;;20.20;73.00;;;;;;5277956;28;20077;-73
2022/04/07 09:45:51;;;;;;;26.13;5.55;;;20.60;73.60;;;;;;5292556;28;20102;-74
2022/04/07 09:48:27;;;;;;;22.20;5.45;;;20.10;72.40;;;;;;5276695;28;20444;-75
2022/04/07 09:51:15;;;;;;;31.67;6.85;;;19.90;72.30;;;;;;5292271;28;20550;-75
2022/04/07 09:53:48;;;;;;;31.02;7.30;;;20.00;73.20;;;;;;5292434;28;20539;-75
2022/04/07 09:56:31;;;;;;;23.73;5.40;;;20.20;72.40;;;;;;5287814;28;20084;-74
2022/04/07 09:59:06;;;;;;;22.73;5.53;;;20.20;70.50;;;;;;5269233;28;20822;-76
2022/04/07 10:01:39;;;;;;;21.60;5.57;;;20.60;69.10;;;;;;5280207;28;20053;-74
2022/04/07 10:04:17;;;;;;;20.48;5.45;;;20.50;68.50;;;;;;5282941;28;20154;-74
2022/04/07 10:06:56;;;;;;;24.10;6.43;;;20.50;70.10;;;;;;5268553;28;20031;-75
2022/04/07 10:09:30;;;;;;;22.70;6.33;;;20.80;71.40;;;;;;5292076;28;20027;-76
2022/04/07 10:12:05;;;;;;;28.20;6.93;;;21.30;69.20;;;;;;5292414;28;20022;-72
2022/04/07 10:14:40;;;;;;;27.48;6.10;;;21.30;67.50;;;;;;5291717;28;20055;-73
2022/04/07 10:17:19;;;;;;;26.65;5.95;;;21.10;67.70;;;;;;5291855;28;20035;-74
2022/04/07 10:20:01;;;;;;;23.27;5.20;;;20.40;66.50;;;;;;5292093;28;20465;-72
2022/04/07 10:23:02;;;;;;;28.38;5.10;;;20.50;68.40;;;;;;5276981;28;20008;-72
2022/04/07 10:25:43;;;;;;;29.92;5.03;;;20.40;64.90;;;;;;5291826;28;20027;-73
2022/04/07 10:28:21;;;;;;;31.73;6.80;;;20.10;64.90;;;;;;5291998;28;20091;-73
2022/04/07 10:30:57;;;;;;;26.25;6.85;;;20.00;65.40;;;;;;5292183;28;20115;-72
2022/04/07 10:33:46;;;;;;;25.65;6.47;;;20.00;65.80;;;;;;5291753;28;20020;-73
2022/04/07 10:36:28;;;;;;;30.75;6.72;;;20.10;67.90;;;;;;5291810;28;20100;-72
2022/04/07 10:39:11;;;;;;;21.90;6.63;;;19.80;67.30;;;;;;5291975;28;20117;-73
2022/04/07 10:41:46;;;;;;;24.20;6.55;;;19.80;67.70;;;;;;5291801;28;20023;-73
2022/04/07 10:44:24;;;;;;;30.58;7.82;;;19.80;67.50;;;;;;5291611;28;20024;-73
2022/04/07 10:47:10;;;;;;;27.27;6.88;;;20.10;66.20;;;;;;5278389;28;20483;-72
2022/04/07 10:49:50;;;;;;;23.23;6.47;;;19.70;68.30;;;;;;5291493;28;20039;-72
2022/04/07 10:52:32;;;;;;;29.92;7.43;;;19.70;69.70;;;;;;5274543;28;20019;-74
2022/04/07 10:55:14;;;;;;;29.88;7.47;;;19.50;69.00;;;;;;5290514;28;20023;-73
2022/04/07 10:58:14;;;;;;;31.35;6.97;;;19.40;69.60;;;;;;5283012;28;20039;-73
2022/04/07 11:00:55;;;;;;;35.00;8.48;;;19.50;69.40;;;;;;5252144;28;20024;-73
2022/04/07 11:03:28;;;;;;;27.88;7.03;;;19.40;69.80;;;;;;5274684;28;20024;-75
2022/04/07 11:06:10;;;;;;;33.70;7.97;;;19.20;70.30;;;;;;5291076;28;20063;-74
2022/04/07 11:08:46;;;;;;;31.05;7.53;;;19.20;70.10;;;;;;5291345;28;20028;-75
2022/04/07 11:12:07;;;;;;;31.02;8.05;;;19.60;70.00;;;;;;5280046;28;20024;-75
2022/04/07 11:14:42;;;;;;;34.42;6.97;;;19.70;70.30;;;;;;5276158;28;20052;-75
2022/04/07 11:17:34;;;;;;;27.98;6.88;;;19.80;69.70;;;;;;5290965;28;20105;-75
2022/04/07 11:20:06;;;;;;;33.22;7.65;;;19.80;70.20;;;;;;5290640;28;20012;-73
2022/04/07 11:23:14;;;;;;;34.83;7.05;;;20.10;72.70;;;;;;5286956;28;20055;-75
2022/04/07 11:25:49;;;;;;;32.42;7.90;;;20.00;70.30;;;;;;5290569;28;20063;-75
2022/04/07 11:28:25;;;;;;;33.15;7.32;;;19.70;70.90;;;;;;5290865;28;20053;-73
2022/04/07 11:31:04;;;;;;;29.48;6.72;;;19.60;71.60;;;;;;5277381;28;20385;-75
2022/04/07 11:33:42;;;;;;;37.85;6.65;;;19.50;72.20;;;;;;5290357;28;20030;-75
2022/04/07 11:36:34;;;;;;;32.42;6.68;;;19.40;71.60;;;;;;5290455;28;20038;-75
2022/04/07 11:39:15;;;;;;;29.65;7.25;;;19.70;72.50;;;;;;5290246;28;20035;-73
2022/04/07 11:41:48;;;;;;;34.42;7.45;;;19.80;73.80;;;;;;5290448;28;20041;-75
2022/04/07 11:44:26;;;;;;;33.03;7.22;;;19.80;74.60;;;;;;5290285;28;20497;-75
2022/04/07 11:47:21;;;;;;;37.40;7.50;;;19.70;71.60;;;;;;5290296;28;20032;-75
2022/04/07 11:49:58;;;;;;;33.38;6.78;;;19.60;71.90;;;;;;5284640;28;20417;-75
2022/04/07 11:52:36;;;;;;;36.80;6.63;;;19.80;73.20;;;;;;5273307;28;20094;-76
2022/04/07 11:55:11;;;;;;;37.92;7.53;;;19.90;73.80;;;;;;5290088;28;20050;-75
2022/04/07 11:57:48;;;;;;;38.78;7.65;;;20.00;75.20;;;;;;5289902;28;20475;-75
2022/04/07 12:00:28;;;;;;;31.17;7.63;;;19.70;72.70;;;;;;5271580;28;20016;-76
2022/04/07 12:03:05;;;;;;;42.13;7.13;;;19.80;73.90;;;;;;5289698;28;20052;-76
2022/04/07 12:05:45;;;;;;;34.38;6.82;;;19.80;75.10;;;;;;5282130;28;20027;-74
2022/04/07 12:08:20;;;;;;;29.35;5.90;;;19.80;75.20;;;;;;5271376;28;20020;-76
2022/04/07 12:10:58;;;;;;;31.73;7.53;;;19.80;73.90;;;;;;5290095;28;20024;-76
2022/04/07 12:13:30;;;;;;;33.80;6.95;;;19.80;74.00;;;;;;5280961;28;20448;-74
2022/04/07 12:16:03;;;;;;;39.42;7.28;;;19.90;76.40;;;;;;5253333;28;20397;-74
2022/04/07 12:18:37;;;;;;;37.72;8.75;;;19.80;75.70;;;;;;5247688;28;20028;-73
2022/04/07 12:21:14;;;;;;;31.25;8.23;;;19.70;75.90;;;;;;5242982;28;20020;-74
2022/04/07 12:23:49;;;;;;;35.75;7.47;;;19.90;78.50;;;;;;5247856;28;20024;-74
2022/04/07 12:26:21;;;;;;;31.35;6.85;;;19.80;75.70;;;;;;5247709;28;20013;-74
2022/04/07 12:29:04;;;;;;;45.33;7.75;;;19.70;77.10;;;;;;5247776;28;20020;-74
2022/04/07 12:31:38;;;;;;;34.72;7.40;;;19.50;79.80;;;;;;5246128;28;20400;-73
2022/04/07 12:34:17;;;;;;;31.23;6.38;;;19.60;77.60;;;;;;5244436;28;20021;-73
2022/04/07 12:36:52;;;;;;;31.83;7.40;;;19.50;78.40;;;;;;5247258;28;20051;-72
2022/04/07 12:39:34;;;;;;;38.88;6.90;;;19.20;82.00;;;;;;5247227;28;20095;-72
2022/04/07 12:42:11;;;;;;;40.92;7.32;;;19.00;81.90;;;;;;5247365;28;20342;-72
2022/04/07 12:44:45;;;;;;;41.60;7.57;;;19.00;88.60;;;;;;5246063;28;20024;-71
2022/04/07 12:47:26;;;;;;;34.53;7.35;;;18.60;99.90;;;;;;5247731;28;20028;-75
2022/04/07 12:50:06;;;;;;;32.65;7.40;;;18.20;99.90;;;;;;5247325;28;20073;-71
2022/04/07 12:52:43;;;;;;;;;;;17.90;99.90;;;;;;5247814;28;20016;-71
2022/04/07 12:55:19;;;;;;;41.22;7.95;;;17.30;99.90;;;;;;5247436;28;20386;-71
2022/04/07 12:57:59;;;;;;;33.40;6.65;;;17.30;99.90;;;;;;5247136;28;20452;-71
2022/04/07 13:00:37;;;;;;;28.37;7.03;;;17.30;99.90;;;;;;5226779;28;20078;-75
2022/04/07 13:03:17;;;;;;;44.72;7.82;;;17.60;99.90;;;;;;5237265;28;20012;-75
2022/04/07 13:05:56;;;;;;;37.28;7.32;;;17.80;99.90;;;;;;5247252;28;20086;-75
2022/04/07 13:08:29;;;;;;;46.92;7.93;;;17.90;99.90;;;;;;5232469;28;20083;-75
2022/04/07 13:11:06;;;;;;;38.78;8.27;;;17.90;99.90;;;;;;5246141;28;20104;-72
2022/04/07 13:13:39;;;;;;;44.00;6.47;;;17.80;99.90;;;;;;5246989;28;20053;-73
2022/04/07 13:16:15;;;;;;;30.35;6.75;;;18.00;99.90;;;;;;5279787;28;20052;-74
2022/04/07 13:18:52;;;;;;;41.60;7.05;;;18.10;99.90;;;;;;5275628;28;20036;-75